sensor_id;sensor_type;location;lat;lon;timestamp;pressure;altitude;pressure_sealevel;temperature;humidity
45731;BME280;31440;48.584;13.460;2023-04-30T00:00:29;96960.84;;;12.05;96.89
45731;BME280;31440;48.584;13.460;2023-04-30T00:03:33;96961.97;;;12.63;94.16
45731;BME280;31440;48.584;13.460;2023-04-30T00:06:38;96958.88;;;12.33;95.97
45731;BME280;31440;48.584;13.460;2023-04-30T00:09:43;96965.81;;;12.54;95.73
45731;BME280;31440;48.584;13.460;2023-04-30T00:12:47;96958.53;;;12.83;91.73
45731;BME280;31440;48.584;13.460;2023-04-30T00:15:54;96913.59;;;12.37;93.72
45731;BME280;31440;48.584;13.460;2023-04-30T00:18:59;96966.75;;;12.74;92.59
45731;BME280;31440;48.584;13.460;2023-04-30T00:22:04;96963.22;;;12.33;95.61
45731;BME280;31440;48.584;13.460;2023-04-30T00:25:09;96963.81;;;12.61;95.20
45731;BME280;31440;48.584;13.460;2023-04-30T00:28:15;96972.97;;;12.49;96.06
45731;BME280;31440;48.584;13.460;2023-04-30T00:31:20;96972.44;;;12.62;96.32
45731;BME280;31440;48.584;13.460;2023-04-30T00:34:25;96972.09;;;12.27;98.69
45731;BME280;31440;48.584;13.460;2023-04-30T00:37:30;96970.28;;;12.51;95.77
45731;BME280;31440;48.584;13.460;2023-04-30T00:40:37;96973.69;;;12.31;95.47
45731;BME280;31440;48.584;13.460;2023-04-30T00:43:43;96970.78;;;12.39;94.24
45731;BME280;31440;48.584;13.460;2023-04-30T00:46:50;96968.13;;;12.40;94.63
45731;BME280;31440;48.584;13.460;2023-04-30T00:49:55;96966.66;;;12.33;94.21
45731;BME280;31440;48.584;13.460;2023-04-30T00:53:00;96973.41;;;12.39;93.46
45731;BME280;31440;48.584;13.460;2023-04-30T00:59:28;96933.41;;;11.96;93.23
45731;BME280;31440;48.584;13.460;2023-04-30T01:02:34;96975.09;;;12.18;93.71
45731;BME280;31440;48.584;13.460;2023-04-30T01:05:39;96984.09;;;12.08;91.80
45731;BME280;31440;48.584;13.460;2023-04-30T01:08:44;96987.34;;;11.69;95.33
45731;BME280;31440;48.584;13.460;2023-04-30T01:12:12;96994.81;;;12.00;91.63
45731;BME280;31440;48.584;13.460;2023-04-30T01:21:38;96992.91;;;12.05;92.35
45731;BME280;31440;48.584;13.460;2023-04-30T01:25:12;96994.25;;;11.92;90.02
45731;BME280;31440;48.584;13.460;2023-04-30T01:28:18;96969.94;;;12.16;91.87
45731;BME280;31440;48.584;13.460;2023-04-30T01:31:26;96994.50;;;12.08;91.97
45731;BME280;31440;48.584;13.460;2023-04-30T01:34:32;96998.66;;;11.90;93.04
45731;BME280;31440;48.584;13.460;2023-04-30T01:48:11;97008.53;;;11.82;96.17
45731;BME280;31440;48.584;13.460;2023-04-30T01:58:09;97016.03;;;11.66;94.01
45731;BME280;31440;48.584;13.460;2023-04-30T02:01:28;97020.69;;;11.81;91.83
45731;BME280;31440;48.584;13.460;2023-04-30T02:04:33;97025.84;;;11.58;94.94
45731;BME280;31440;48.584;13.460;2023-04-30T02:07:42;97028.00;;;11.94;94.16
45731;BME280;31440;48.584;13.460;2023-04-30T02:10:48;97016.66;;;11.73;95.89
45731;BME280;31440;48.584;13.460;2023-04-30T02:13:52;97031.41;;;11.72;95.87
45731;BME280;31440;48.584;13.460;2023-04-30T02:16:57;97033.41;;;11.41;96.63
45731;BME280;31440;48.584;13.460;2023-04-30T02:20:01;97030.59;;;11.72;94.66
45731;BME280;31440;48.584;13.460;2023-04-30T02:23:06;97034.59;;;11.80;95.67
45731;BME280;31440;48.584;13.460;2023-04-30T02:26:13;97031.41;;;11.72;96.13
45731;BME280;31440;48.584;13.460;2023-04-30T02:29:17;97041.81;;;11.72;96.99
45731;BME280;31440;48.584;13.460;2023-04-30T02:32:22;97040.69;;;11.79;97.91
45731;BME280;31440;48.584;13.460;2023-04-30T02:35:27;97048.22;;;11.87;94.54
45731;BME280;31440;48.584;13.460;2023-04-30T02:38:31;97044.81;;;11.62;96.26
45731;BME280;31440;48.584;13.460;2023-04-30T02:41:36;97044.91;;;11.59;93.56
45731;BME280;31440;48.584;13.460;2023-04-30T02:44:40;97043.75;;;11.67;95.27
45731;BME280;31440;48.584;13.460;2023-04-30T02:47:45;97041.84;;;11.47;91.91
45731;BME280;31440;48.584;13.460;2023-04-30T02:50:50;97052.00;;;11.30;98.12
45731;BME280;31440;48.584;13.460;2023-04-30T02:53:55;97044.41;;;11.49;96.48
45731;BME280;31440;48.584;13.460;2023-04-30T02:56:59;97056.84;;;11.39;96.78
45731;BME280;31440;48.584;13.460;2023-04-30T03:00:05;97054.59;;;10.79;100.00
45731;BME280;31440;48.584;13.460;2023-04-30T03:03:10;97051.16;;;11.03;100.00
45731;BME280;31440;48.584;13.460;2023-04-30T03:06:15;97051.66;;;11.14;100.00
45731;BME280;31440;48.584;13.460;2023-04-30T03:09:19;97059.94;;;11.26;99.63
45731;BME280;31440;48.584;13.460;2023-04-30T03:12:24;97061.63;;;11.27;99.88
45731;BME280;31440;48.584;13.460;2023-04-30T03:15:31;97064.19;;;11.53;97.19
45731;BME280;31440;48.584;13.460;2023-04-30T03:21:43;97075.53;;;11.50;93.34
45731;BME280;31440;48.584;13.460;2023-04-30T03:24:48;97069.81;;;11.66;91.17
45731;BME280;31440;48.584;13.460;2023-04-30T03:27:53;97078.09;;;11.75;91.78
45731;BME280;31440;48.584;13.460;2023-04-30T03:30:57;97081.06;;;11.66;92.77
45731;BME280;31440;48.584;13.460;2023-04-30T03:34:03;97084.59;;;11.89;90.08
45731;BME280;31440;48.584;13.460;2023-04-30T03:37:08;97059.34;;;11.91;89.61
45731;BME280;31440;48.584;13.460;2023-04-30T03:40:13;97080.59;;;11.78;94.44
45731;BME280;31440;48.584;13.460;2023-04-30T03:43:18;97083.00;;;11.84;93.12
45731;BME280;31440;48.584;13.460;2023-04-30T03:46:23;97087.06;;;11.68;94.67
45731;BME280;31440;48.584;13.460;2023-04-30T03:49:29;97086.50;;;11.59;94.79
45731;BME280;31440;48.584;13.460;2023-04-30T03:52:34;97072.81;;;11.78;90.32
45731;BME280;31440;48.584;13.460;2023-04-30T03:55:41;97084.16;;;11.52;94.21
45731;BME280;31440;48.584;13.460;2023-04-30T03:58:47;97064.13;;;11.55;93.00
45731;BME280;31440;48.584;13.460;2023-04-30T04:01:52;97089.66;;;11.92;91.87
45731;BME280;31440;48.584;13.460;2023-04-30T04:04:57;97085.91;;;11.75;93.67
45731;BME280;31440;48.584;13.460;2023-04-30T04:08:01;97095.78;;;11.41;97.11
45731;BME280;31440;48.584;13.460;2023-04-30T04:11:06;97094.91;;;11.67;97.07
45731;BME280;31440;48.584;13.460;2023-04-30T04:14:10;97101.94;;;11.38;98.16
45731;BME280;31440;48.584;13.460;2023-04-30T04:20:21;97097.44;;;11.43;100.00
45731;BME280;31440;48.584;13.460;2023-04-30T04:23:25;97097.41;;;11.45;100.00
45731;BME280;31440;48.584;13.460;2023-04-30T04:26:30;97091.44;;;11.41;100.00
45731;BME280;31440;48.584;13.460;2023-04-30T04:29:35;97108.41;;;11.76;100.00
45731;BME280;31440;48.584;13.460;2023-04-30T04:32:40;97109.63;;;11.41;100.00
45731;BME280;31440;48.584;13.460;2023-04-30T04:35:53;97117.53;;;11.13;100.00
45731;BME280;31440;48.584;13.460;2023-04-30T04:38:58;97119.59;;;11.02;100.00
45731;BME280;31440;48.584;13.460;2023-04-30T04:42:06;97119.50;;;11.32;100.00
45731;BME280;31440;48.584;13.460;2023-04-30T04:45:11;97122.78;;;11.37;100.00
45731;BME280;31440;48.584;13.460;2023-04-30T04:48:15;97126.72;;;11.73;100.00
45731;BME280;31440;48.584;13.460;2023-04-30T04:51:20;97113.59;;;11.53;100.00
45731;BME280;31440;48.584;13.460;2023-04-30T04:54:25;97126.31;;;11.85;100.00
45731;BME280;31440;48.584;13.460;2023-04-30T04:57:29;97120.94;;;12.15;100.00
45731;BME280;31440;48.584;13.460;2023-04-30T05:03:40;97119.72;;;12.00;100.00
45731;BME280;31440;48.584;13.460;2023-04-30T05:06:45;97124.81;;;12.50;95.18
45731;BME280;31440;48.584;13.460;2023-04-30T05:09:50;97106.34;;;13.00;91.93
45731;BME280;31440;48.584;13.460;2023-04-30T05:12:54;97114.22;;;13.20;96.04
45731;BME280;31440;48.584;13.460;2023-04-30T05:15:59;97112.47;;;13.20;100.00
45731;BME280;31440;48.584;13.460;2023-04-30T05:19:03;97116.38;;;12.88;100.00
45731;BME280;31440;48.584;13.460;2023-04-30T05:22:08;97129.16;;;12.95;99.08
45731;BME280;31440;48.584;13.460;2023-04-30T05:25:12;97121.41;;;12.93;100.00
45731;BME280;31440;48.584;13.460;2023-04-30T05:28:17;97122.13;;;13.39;97.96
45731;BME280;31440;48.584;13.460;2023-04-30T05:31:21;97127.88;;;13.69;92.76
45731;BME280;31440;48.584;13.460;2023-04-30T05:34:26;97130.59;;;13.45;91.40
45731;BME280;31440;48.584;13.460;2023-04-30T05:37:31;97135.34;;;13.76;88.83
45731;BME280;31440;48.584;13.460;2023-04-30T05:40:35;97121.00;;;13.24;92.26
45731;BME280;31440;48.584;13.460;2023-04-30T05:43:40;97133.06;;;13.27;90.48
45731;BME280;31440;48.584;13.460;2023-04-30T05:46:46;97095.78;;;13.24;86.81
45731;BME280;31440;48.584;13.460;2023-04-30T05:49:50;97134.91;;;13.67;91.58
45731;BME280;31440;48.584;13.460;2023-04-30T05:52:55;97133.78;;;13.72;92.11
45731;BME280;31440;48.584;13.460;2023-04-30T05:56:00;97138.75;;;13.58;95.25
45731;BME280;31440;48.584;13.460;2023-04-30T05:59:04;97137.78;;;14.20;88.03
45731;BME280;31440;48.584;13.460;2023-04-30T06:02:09;97141.47;;;14.35;84.95
45731;BME280;31440;48.584;13.460;2023-04-30T06:05:13;97140.50;;;13.78;76.86
45731;BME280;31440;48.584;13.460;2023-04-30T06:08:19;97142.69;;;14.46;75.40
45731;BME280;31440;48.584;13.460;2023-04-30T06:11:24;97145.59;;;14.40;78.43
45731;BME280;31440;48.584;13.460;2023-04-30T06:14:29;97146.06;;;14.48;75.85
45731;BME280;31440;48.584;13.460;2023-04-30T06:17:34;97145.75;;;14.75;75.35
45731;BME280;31440;48.584;13.460;2023-04-30T06:20:39;97146.19;;;14.26;78.38
45731;BME280;31440;48.584;13.460;2023-04-30T06:23:43;97149.56;;;14.86;77.33
45731;BME280;31440;48.584;13.460;2023-04-30T06:29:54;97154.31;;;15.14;77.11
45731;BME280;31440;48.584;13.460;2023-04-30T06:32:59;97152.53;;;14.79;76.59
45731;BME280;31440;48.584;13.460;2023-04-30T06:36:04;97148.22;;;14.78;75.48
45731;BME280;31440;48.584;13.460;2023-04-30T06:39:09;97152.97;;;15.24;66.50
45731;BME280;31440;48.584;13.460;2023-04-30T06:42:13;97155.59;;;15.06;69.23
45731;BME280;31440;48.584;13.460;2023-04-30T06:45:18;97151.69;;;15.14;72.82
45731;BME280;31440;48.584;13.460;2023-04-30T06:48:22;97149.34;;;14.91;66.54
45731;BME280;31440;48.584;13.460;2023-04-30T06:51:27;97155.81;;;15.37;68.03
45731;BME280;31440;48.584;13.460;2023-04-30T06:54:32;97156.00;;;15.15;67.32
45731;BME280;31440;48.584;13.460;2023-04-30T06:57:36;97160.59;;;15.65;67.01
45731;BME280;31440;48.584;13.460;2023-04-30T07:00:44;97119.78;;;15.08;66.12
45731;BME280;31440;48.584;13.460;2023-04-30T07:03:48;97153.66;;;15.64;68.07
45731;BME280;31440;48.584;13.460;2023-04-30T07:06:54;97143.47;;;15.75;64.84
45731;BME280;31440;48.584;13.460;2023-04-30T07:09:59;97157.56;;;15.73;64.19
45731;BME280;31440;48.584;13.460;2023-04-30T07:13:03;97150.88;;;16.34;61.69
45731;BME280;31440;48.584;13.460;2023-04-30T07:16:08;97129.81;;;16.36;57.17
45731;BME280;31440;48.584;13.460;2023-04-30T07:19:17;97113.28;;;16.51;60.30
45731;BME280;31440;48.584;13.460;2023-04-30T07:22:22;97152.22;;;16.09;59.56
45731;BME280;31440;48.584;13.460;2023-04-30T07:25:26;97145.44;;;16.71;58.54
45731;BME280;31440;48.584;13.460;2023-04-30T07:28:31;97145.38;;;16.88;56.32
45731;BME280;31440;48.584;13.460;2023-04-30T07:31:35;97143.75;;;16.69;58.46
45731;BME280;31440;48.584;13.460;2023-04-30T07:34:40;97143.09;;;16.33;58.93
45731;BME280;31440;48.584;13.460;2023-04-30T07:37:44;97138.47;;;16.54;59.19
45731;BME280;31440;48.584;13.460;2023-04-30T07:40:49;97146.91;;;16.59;57.52
45731;BME280;31440;48.584;13.460;2023-04-30T07:43:54;97140.72;;;17.84;51.86
45731;BME280;31440;48.584;13.460;2023-04-30T07:46:58;97145.41;;;17.33;54.24
45731;BME280;31440;48.584;13.460;2023-04-30T07:50:03;97143.59;;;17.04;53.67
45731;BME280;31440;48.584;13.460;2023-04-30T07:53:08;97142.78;;;17.33;51.82
45731;BME280;31440;48.584;13.460;2023-04-30T07:56:13;97144.47;;;17.80;53.08
45731;BME280;31440;48.584;13.460;2023-04-30T07:59:17;97142.78;;;17.79;55.37
45731;BME280;31440;48.584;13.460;2023-04-30T08:02:22;97137.03;;;17.43;53.55
45731;BME280;31440;48.584;13.460;2023-04-30T08:05:27;97143.94;;;17.59;53.21
45731;BME280;31440;48.584;13.460;2023-04-30T08:08:31;97147.31;;;17.91;51.24
45731;BME280;31440;48.584;13.460;2023-04-30T08:11:36;97149.47;;;17.99;51.98
45731;BME280;31440;48.584;13.460;2023-04-30T08:14:40;97147.63;;;19.13;52.70
45731;BME280;31440;48.584;13.460;2023-04-30T08:17:45;97147.34;;;17.61;52.31
45731;BME280;31440;48.584;13.460;2023-04-30T08:20:49;97144.56;;;17.33;52.52
45731;BME280;31440;48.584;13.460;2023-04-30T08:23:54;97154.78;;;17.37;51.42
45731;BME280;31440;48.584;13.460;2023-04-30T08:26:59;97157.31;;;17.85;52.08
45731;BME280;31440;48.584;13.460;2023-04-30T08:30:05;97162.19;;;17.15;53.85
45731;BME280;31440;48.584;13.460;2023-04-30T08:33:10;97158.56;;;17.02;51.39
45731;BME280;31440;48.584;13.460;2023-04-30T08:39:21;97149.81;;;17.79;52.41
45731;BME280;31440;48.584;13.460;2023-04-30T08:42:35;97159.06;;;17.70;51.49
45731;BME280;31440;48.584;13.460;2023-04-30T08:45:40;97155.47;;;17.41;49.92
45731;BME280;31440;48.584;13.460;2023-04-30T08:48:45;97154.41;;;17.75;48.64
45731;BME280;31440;48.584;13.460;2023-04-30T08:51:51;97153.41;;;17.00;51.73
45731;BME280;31440;48.584;13.460;2023-04-30T08:54:56;97158.50;;;16.55;51.36
45731;BME280;31440;48.584;13.460;2023-04-30T08:58:02;97159.56;;;16.35;51.88
45731;BME280;31440;48.584;13.460;2023-04-30T09:01:09;97153.94;;;16.91;52.18
45731;BME280;31440;48.584;13.460;2023-04-30T09:04:13;97156.53;;;17.07;51.83
45731;BME280;31440;48.584;13.460;2023-04-30T09:07:19;97164.22;;;16.46;53.92
45731;BME280;31440;48.584;13.460;2023-04-30T09:10:24;97168.84;;;16.41;51.32
45731;BME280;31440;48.584;13.460;2023-04-30T09:13:39;97165.59;;;16.53;51.01
45731;BME280;31440;48.584;13.460;2023-04-30T09:16:49;97156.88;;;17.01;51.10
45731;BME280;31440;48.584;13.460;2023-04-30T09:19:55;97164.47;;;17.21;50.67
45731;BME280;31440;48.584;13.460;2023-04-30T09:23:10;97157.13;;;17.58;48.94
45731;BME280;31440;48.584;13.460;2023-04-30T09:26:20;97160.91;;;16.42;52.56
45731;BME280;31440;48.584;13.460;2023-04-30T09:29:35;97162.19;;;16.84;56.66
45731;BME280;31440;48.584;13.460;2023-04-30T09:33:01;97160.47;;;17.61;53.31
45731;BME280;31440;48.584;13.460;2023-04-30T09:36:08;97161.94;;;17.20;52.42
45731;BME280;31440;48.584;13.460;2023-04-30T09:39:13;97156.59;;;17.97;49.94
45731;BME280;31440;48.584;13.460;2023-04-30T09:42:21;97163.31;;;17.87;53.26
45731;BME280;31440;48.584;13.460;2023-04-30T09:45:25;97152.81;;;18.59;49.29
45731;BME280;31440;48.584;13.460;2023-04-30T09:48:30;97151.28;;;18.41;51.21
45731;BME280;31440;48.584;13.460;2023-04-30T09:51:52;97154.03;;;18.54;50.85
45731;BME280;31440;48.584;13.460;2023-04-30T09:54:57;97155.69;;;18.40;51.51
45731;BME280;31440;48.584;13.460;2023-04-30T09:58:05;97152.44;;;18.65;51.56
45731;BME280;31440;48.584;13.460;2023-04-30T10:01:11;97151.00;;;18.88;49.23
45731;BME280;31440;48.584;13.460;2023-04-30T10:04:15;97152.22;;;18.83;46.30
45731;BME280;31440;48.584;13.460;2023-04-30T10:07:23;97149.31;;;19.14;47.71
45731;BME280;31440;48.584;13.460;2023-04-30T10:10:29;97145.47;;;18.79;49.87
45731;BME280;31440;48.584;13.460;2023-04-30T10:13:42;97152.66;;;18.18;50.69
45731;BME280;31440;48.584;13.460;2023-04-30T10:16:50;97144.50;;;18.94;50.70
45731;BME280;31440;48.584;13.460;2023-04-30T10:20:01;97149.06;;;18.63;49.23
45731;BME280;31440;48.584;13.460;2023-04-30T10:23:08;97147.13;;;18.94;50.45
45731;BME280;31440;48.584;13.460;2023-04-30T10:26:14;97144.28;;;18.70;51.65
45731;BME280;31440;48.584;13.460;2023-04-30T10:29:20;97105.78;;;18.55;51.69
45731;BME280;31440;48.584;13.460;2023-04-30T10:32:29;97138.22;;;18.82;49.32
45731;BME280;31440;48.584;13.460;2023-04-30T10:35:58;97134.38;;;18.73;48.53
45731;BME280;31440;48.584;13.460;2023-04-30T10:39:05;97127.00;;;18.66;48.70
45731;BME280;31440;48.584;13.460;2023-04-30T10:42:10;97133.75;;;18.27;50.28
45731;BME280;31440;48.584;13.460;2023-04-30T10:45:15;97131.56;;;18.05;48.27
45731;BME280;31440;48.584;13.460;2023-04-30T10:48:22;97111.28;;;17.93;49.48
45731;BME280;31440;48.584;13.460;2023-04-30T10:51:47;97129.56;;;17.81;47.65
45731;BME280;31440;48.584;13.460;2023-04-30T10:54:52;97134.47;;;18.43;46.85
45731;BME280;31440;48.584;13.460;2023-04-30T10:57:57;97131.94;;;18.42;47.76
45731;BME280;31440;48.584;13.460;2023-04-30T11:01:09;97134.19;;;18.20;49.43
45731;BME280;31440;48.584;13.460;2023-04-30T11:04:14;97127.56;;;17.70;49.43
45731;BME280;31440;48.584;13.460;2023-04-30T11:07:24;97124.81;;;18.30;48.49
45731;BME280;31440;48.584;13.460;2023-04-30T11:10:33;97127.09;;;18.50;49.59
45731;BME280;31440;48.584;13.460;2023-04-30T11:13:44;97125.59;;;18.32;46.65
45731;BME280;31440;48.584;13.460;2023-04-30T11:16:49;97121.09;;;18.89;46.60
45731;BME280;31440;48.584;13.460;2023-04-30T11:19:59;97121.06;;;18.05;47.08
45731;BME280;31440;48.584;13.460;2023-04-30T11:26:12;97104.34;;;17.78;49.08
45731;BME280;31440;48.584;13.460;2023-04-30T11:29:17;97120.88;;;18.23;49.71
45731;BME280;31440;48.584;13.460;2023-04-30T11:32:24;97119.28;;;18.20;49.54
45731;BME280;31440;48.584;13.460;2023-04-30T11:35:31;97123.06;;;18.16;50.28
45731;BME280;31440;48.584;13.460;2023-04-30T11:38:36;97121.63;;;17.96;49.99
45731;BME280;31440;48.584;13.460;2023-04-30T11:41:42;97114.59;;;18.68;48.54
45731;BME280;31440;48.584;13.460;2023-04-30T11:44:48;97085.88;;;18.08;48.11
45731;BME280;31440;48.584;13.460;2023-04-30T11:47:53;97114.38;;;18.85;49.42
45731;BME280;31440;48.584;13.460;2023-04-30T11:50:59;97103.59;;;17.90;50.76
45731;BME280;31440;48.584;13.460;2023-04-30T11:54:07;97110.41;;;19.19;48.36
45731;BME280;31440;48.584;13.460;2023-04-30T11:57:11;97113.59;;;19.51;46.01
45731;BME280;31440;48.584;13.460;2023-04-30T12:00:20;97082.63;;;20.56;44.79
45731;BME280;31440;48.584;13.460;2023-04-30T12:03:24;97098.94;;;20.74;43.98
45731;BME280;31440;48.584;13.460;2023-04-30T12:06:29;97098.31;;;21.55;43.19
45731;BME280;31440;48.584;13.460;2023-04-30T12:09:53;97087.28;;;22.29;38.63
45731;BME280;31440;48.584;13.460;2023-04-30T12:12:59;97078.16;;;22.33;44.70
45731;BME280;31440;48.584;13.460;2023-04-30T12:16:04;97087.38;;;23.49;38.84
45731;BME280;31440;48.584;13.460;2023-04-30T12:19:08;97077.84;;;24.90;39.28
45731;BME280;31440;48.584;13.460;2023-04-30T12:22:13;97086.28;;;24.44;32.92
45731;BME280;31440;48.584;13.460;2023-04-30T12:25:20;97070.81;;;24.49;33.92
45731;BME280;31440;48.584;13.460;2023-04-30T12:28:25;97071.72;;;24.29;33.80
45731;BME280;31440;48.584;13.460;2023-04-30T12:31:32;97073.59;;;24.48;35.08
45731;BME280;31440;48.584;13.460;2023-04-30T12:34:37;97062.06;;;23.98;37.26
45731;BME280;31440;48.584;13.460;2023-04-30T12:37:46;97060.69;;;22.98;37.22
45731;BME280;31440;48.584;13.460;2023-04-30T12:40:51;97046.03;;;22.94;35.85
45731;BME280;31440;48.584;13.460;2023-04-30T12:44:18;97050.75;;;22.01;36.20
45731;BME280;31440;48.584;13.460;2023-04-30T12:47:24;97031.31;;;21.91;37.69
45731;BME280;31440;48.584;13.460;2023-04-30T12:50:28;97046.47;;;21.76;35.51
45731;BME280;31440;48.584;13.460;2023-04-30T12:53:33;97040.34;;;21.53;35.41
45731;BME280;31440;48.584;13.460;2023-04-30T12:56:37;97044.19;;;22.29;37.52
45731;BME280;31440;48.584;13.460;2023-04-30T13:02:57;97030.13;;;23.57;34.56
45731;BME280;31440;48.584;13.460;2023-04-30T13:06:01;97029.38;;;24.18;31.27
45731;BME280;31440;48.584;13.460;2023-04-30T13:09:07;97023.94;;;23.47;34.32
45731;BME280;31440;48.584;13.460;2023-04-30T13:12:12;97024.78;;;23.69;36.41
45731;BME280;31440;48.584;13.460;2023-04-30T13:15:17;97018.66;;;22.72;34.70
45731;BME280;31440;48.584;13.460;2023-04-30T13:18:22;97023.50;;;22.00;34.69
45731;BME280;31440;48.584;13.460;2023-04-30T13:21:26;97013.25;;;23.06;34.91
45731;BME280;31440;48.584;13.460;2023-04-30T13:27:38;97014.09;;;22.30;33.14
45731;BME280;31440;48.584;13.460;2023-04-30T13:30:43;97014.84;;;22.43;32.47
45731;BME280;31440;48.584;13.460;2023-04-30T13:33:49;97012.63;;;22.81;33.24
45731;BME280;31440;48.584;13.460;2023-04-30T13:36:54;97006.28;;;23.57;34.55
45731;BME280;31440;48.584;13.460;2023-04-30T13:39:58;97002.34;;;24.83;31.27
45731;BME280;31440;48.584;13.460;2023-04-30T13:43:04;97004.19;;;25.60;30.89
45731;BME280;31440;48.584;13.460;2023-04-30T13:46:10;97000.31;;;26.93;31.59
45731;BME280;31440;48.584;13.460;2023-04-30T13:52:21;96995.53;;;25.10;31.58
45731;BME280;31440;48.584;13.460;2023-04-30T13:55:26;96993.09;;;22.94;33.81
45731;BME280;31440;48.584;13.460;2023-04-30T13:58:31;96994.16;;;22.59;34.63
45731;BME280;31440;48.584;13.460;2023-04-30T14:01:36;96992.00;;;21.97;34.11
45731;BME280;31440;48.584;13.460;2023-04-30T14:04:41;96952.94;;;20.86;35.54
45731;BME280;31440;48.584;13.460;2023-04-30T14:08:02;96984.78;;;23.30;35.58
45731;BME280;31440;48.584;13.460;2023-04-30T14:11:06;96971.56;;;22.44;34.56
45731;BME280;31440;48.584;13.460;2023-04-30T14:14:11;96985.47;;;21.68;33.07
45731;BME280;31440;48.584;13.460;2023-04-30T14:17:15;96975.91;;;21.21;34.85
45731;BME280;31440;48.584;13.460;2023-04-30T14:23:26;96976.88;;;23.40;34.49
45731;BME280;31440;48.584;13.460;2023-04-30T14:26:32;96984.75;;;22.66;34.34
45731;BME280;31440;48.584;13.460;2023-04-30T14:29:36;96978.13;;;21.03;35.48
45731;BME280;31440;48.584;13.460;2023-04-30T14:32:41;96976.63;;;20.51;36.08
45731;BME280;31440;48.584;13.460;2023-04-30T14:35:46;96948.97;;;19.71;37.37
45731;BME280;31440;48.584;13.460;2023-04-30T14:38:51;96977.00;;;21.29;35.93
45731;BME280;31440;48.584;13.460;2023-04-30T14:41:55;96980.16;;;20.39;36.47
45731;BME280;31440;48.584;13.460;2023-04-30T14:45:00;96974.28;;;20.35;37.06
45731;BME280;31440;48.584;13.460;2023-04-30T14:48:04;96982.00;;;20.00;36.67
45731;BME280;31440;48.584;13.460;2023-04-30T14:51:09;96984.44;;;20.03;37.10
45731;BME280;31440;48.584;13.460;2023-04-30T14:54:14;96970.34;;;22.37;32.89
45731;BME280;31440;48.584;13.460;2023-04-30T14:57:19;96971.53;;;23.51;31.35
45731;BME280;31440;48.584;13.460;2023-04-30T15:00:24;96967.84;;;24.24;30.96
45731;BME280;31440;48.584;13.460;2023-04-30T15:03:29;96954.88;;;24.90;31.13
45731;BME280;31440;48.584;13.460;2023-04-30T15:06:35;96933.19;;;25.14;29.97
45731;BME280;31440;48.584;13.460;2023-04-30T15:09:39;96948.28;;;25.42;29.25
45731;BME280;31440;48.584;13.460;2023-04-30T15:12:44;96944.69;;;24.95;29.91
45731;BME280;31440;48.584;13.460;2023-04-30T15:15:48;96953.25;;;23.99;29.51
45731;BME280;31440;48.584;13.460;2023-04-30T15:18:53;96945.91;;;24.72;29.20
45731;BME280;31440;48.584;13.460;2023-04-30T15:21:58;96948.28;;;25.04;28.80
45731;BME280;31440;48.584;13.460;2023-04-30T15:25:02;96960.69;;;26.08;28.13
45731;BME280;31440;48.584;13.460;2023-04-30T15:28:08;96956.03;;;26.74;27.64
45731;BME280;31440;48.584;13.460;2023-04-30T15:31:13;96956.25;;;26.26;30.56
45731;BME280;31440;48.584;13.460;2023-04-30T15:37:24;96951.88;;;23.01;32.05
45731;BME280;31440;48.584;13.460;2023-04-30T15:40:29;96945.44;;;22.50;32.45
45731;BME280;31440;48.584;13.460;2023-04-30T15:43:34;96951.00;;;21.47;33.39
45731;BME280;31440;48.584;13.460;2023-04-30T15:46:38;96945.19;;;20.96;35.59
45731;BME280;31440;48.584;13.460;2023-04-30T15:49:43;96945.94;;;20.74;34.55
45731;BME280;31440;48.584;13.460;2023-04-30T15:52:48;96942.47;;;20.26;35.05
45731;BME280;31440;48.584;13.460;2023-04-30T15:55:53;96946.19;;;19.98;35.23
45731;BME280;31440;48.584;13.460;2023-04-30T15:58:58;96942.97;;;20.78;34.76
45731;BME280;31440;48.584;13.460;2023-04-30T16:02:02;96939.31;;;21.16;34.14
45731;BME280;31440;48.584;13.460;2023-04-30T16:05:10;96914.44;;;21.07;33.35
45731;BME280;31440;48.584;13.460;2023-04-30T16:08:15;96936.13;;;22.13;33.41
45731;BME280;31440;48.584;13.460;2023-04-30T16:11:20;96933.75;;;21.08;33.92
45731;BME280;31440;48.584;13.460;2023-04-30T16:14:27;96933.25;;;22.16;34.76
45731;BME280;31440;48.584;13.460;2023-04-30T16:17:32;96901.75;;;22.24;32.18
45731;BME280;31440;48.584;13.460;2023-04-30T16:20:36;96928.66;;;22.29;33.10
45731;BME280;31440;48.584;13.460;2023-04-30T16:23:41;96932.59;;;22.46;32.29
45731;BME280;31440;48.584;13.460;2023-04-30T16:26:45;96937.22;;;22.22;32.56
45731;BME280;31440;48.584;13.460;2023-04-30T16:29:50;96925.69;;;21.56;33.53
45731;BME280;31440;48.584;13.460;2023-04-30T16:32:54;96939.50;;;20.54;35.40
45731;BME280;31440;48.584;13.460;2023-04-30T16:35:59;96918.69;;;20.38;35.17
45731;BME280;31440;48.584;13.460;2023-04-30T16:39:03;96924.81;;;20.63;37.65
45731;BME280;31440;48.584;13.460;2023-04-30T16:42:08;96919.81;;;20.10;36.68
45731;BME280;31440;48.584;13.460;2023-04-30T16:45:13;96927.63;;;19.99;36.71
45731;BME280;31440;48.584;13.460;2023-04-30T16:48:18;96921.31;;;20.02;35.66
45731;BME280;31440;48.584;13.460;2023-04-30T16:51:22;96918.19;;;19.84;34.89
45731;BME280;31440;48.584;13.460;2023-04-30T16:54:27;96926.66;;;19.76;36.18
45731;BME280;31440;48.584;13.460;2023-04-30T16:57:31;96918.66;;;19.78;34.65
45731;BME280;31440;48.584;13.460;2023-04-30T17:00:36;96922.63;;;19.20;36.13
45731;BME280;31440;48.584;13.460;2023-04-30T17:03:40;96918.75;;;19.51;35.39
45731;BME280;31440;48.584;13.460;2023-04-30T17:06:47;96891.16;;;19.06;36.77
45731;BME280;31440;48.584;13.460;2023-04-30T17:09:51;96921.13;;;18.91;36.99
45731;BME280;31440;48.584;13.460;2023-04-30T17:12:56;96916.69;;;18.79;37.15